Awendaw, SC

3:15 PM EDT on August 21, 2014 (GMT -0400)
Mount Pleasant | Change Station
CLOSE
Current Station
Airport
Location: Mount Pleasant,
Elevation: 13 ft
Nearby Weather Stations
Active Advisory: Heat Advisory Active Notice: Public Information Statement

Elev 13 ft 32.90 °N, 79.78 °W | Updated 20 minutes ago

Partly Cloudy
Partly Cloudy
95 °F
Feels Like 107 °F
N
6
Wind Variable Wind from WSW

Today
High -- | Low -- °F
--% Chance of Precip.
Yesterday
High -- | Low -- °F
Precip. -- in
6:45 AM 7:57 PM
Waning Crescent, 13% visible
Pressure 30.03 in
Visibility 7.0 miles
Clouds Few 4200 ft
Heat Index 107 °F
Dew Point 75 °F
Humidity 53%
Rainfall 0.00 in
Snow Depth Not available.
UV 10 out of 12
Pollen 7.00 out of 12
Ozone Good
PM2.5 Moderate
Flu Activity Not available.
METAR KLRO 211855Z AUTO 25005KT 7SM FEW042 35/24 A3003 RMK AO2

More Conditions Fewer Conditions

Pressure 30.03 in
Visibility 7.0 miles
Clouds Few 4200 ft
Heat Index 107 °F
Dew Point 75 °F
Humidity 53%
Rainfall 0.00 in
Snow Depth Not available.
UV 10 out of 12
Pollen 7.00 out of 12
Ozone Good
PM2.5 Moderate
Flu Activity Not available.
METAR KLRO 211855Z AUTO 25005KT 7SM FEW042 35/24 A3003 RMK AO2

More Conditions Fewer Conditions

10-Day Weather Forecast

Almanac

Astronomy

Aug. 21, 2014 Rise Set
Actual Time 6:45 AM EDT 7:57 PM EDT
Civil Twilight 6:20 AM EDT 8:22 PM EDT
Nautical Twilight 5:49 AM EDT 8:53 PM EDT
Astronomical Twilight 5:17 AM EDT 9:25 PM EDT
Moon 3:20 AM EDT 5:20 PM EDT
Length of Visible Light 14h 02m
Length of Day
13h 11m
Tomorrow will be 1m 50s shorter.
Waning Crescent, 13% of the Moon is Illuminated
Today
Waning Crescent
Aug 25
New
Sep 2
First Quarter
Sep 8
Full
Sep 15
Last Quarter

Today's Extremes

State Highs State Lows

Community

WunderPhotos

Upload Photos

1,746,005 photos uploaded!

WunderBlogs® & News

Nearby

Air Quality

  Air Quality AQ Index Pollutant
Yesterday Moderate
PM2.5
Yesterday Good
OZONE
Current Moderate
PM2.5
Current Good
OZONE
Thursday Good
OZONE

Snow Depth

Station Depth Elevation
No new snow has been reported.

Earthquake Activity

City Distance Mag. Time & Date
No recent earthquake activity has been reported nearby.
Minimum magnitude displayed is 2.5.

Coastal Water Temperatures

Place Temperature
No Stations Reporting

Nearby Weather Stations